sensor_id;sensor_type;location;lat;lon;timestamp;P1;durP1;ratioP1;P2;durP2;ratioP2
51915;SDS011;37942;53.218;6.548;2022-07-23T00:03:52;14.98;;;5.55;;
51915;SDS011;37942;53.218;6.548;2022-07-23T00:06:19;14.70;;;6.07;;
51915;SDS011;37942;53.218;6.548;2022-07-23T00:11:11;15.25;;;6.22;;
51915;SDS011;37942;53.218;6.548;2022-07-23T00:13:38;14.27;;;5.95;;
51915;SDS011;37942;53.218;6.548;2022-07-23T00:16:04;15.52;;;6.38;;
51915;SDS011;37942;53.218;6.548;2022-07-23T00:20:56;15.02;;;6.50;;
51915;SDS011;37942;53.218;6.548;2022-07-23T00:23:22;15.52;;;5.95;;
51915;SDS011;37942;53.218;6.548;2022-07-23T00:25:50;14.70;;;6.60;;
51915;SDS011;37942;53.218;6.548;2022-07-23T00:28:17;13.35;;;6.13;;
51915;SDS011;37942;53.218;6.548;2022-07-23T00:30:44;12.27;;;6.38;;
51915;SDS011;37942;53.218;6.548;2022-07-23T00:33:10;13.45;;;6.47;;
51915;SDS011;37942;53.218;6.548;2022-07-23T00:38:02;14.43;;;6.80;;
51915;SDS011;37942;53.218;6.548;2022-07-23T00:40:30;15.15;;;6.90;;
51915;SDS011;37942;53.218;6.548;2022-07-23T00:42:56;13.27;;;6.20;;
51915;SDS011;37942;53.218;6.548;2022-07-23T00:45:24;13.73;;;6.95;;
51915;SDS011;37942;53.218;6.548;2022-07-23T00:47:50;17.25;;;6.75;;
51915;SDS011;37942;53.218;6.548;2022-07-23T00:52:42;15.77;;;6.78;;
51915;SDS011;37942;53.218;6.548;2022-07-23T00:55:09;14.00;;;6.90;;
51915;SDS011;37942;53.218;6.548;2022-07-23T00:57:35;15.73;;;6.95;;
51915;SDS011;37942;53.218;6.548;2022-07-23T01:00:03;13.32;;;7.05;;
51915;SDS011;37942;53.218;6.548;2022-07-23T01:02:29;15.35;;;7.00;;
51915;SDS011;37942;53.218;6.548;2022-07-23T01:04:55;17.80;;;7.00;;
51915;SDS011;37942;53.218;6.548;2022-07-23T01:07:21;14.75;;;6.18;;
51915;SDS011;37942;53.218;6.548;2022-07-23T01:09:47;15.00;;;7.60;;
51915;SDS011;37942;53.218;6.548;2022-07-23T01:12:14;15.52;;;7.18;;
51915;SDS011;37942;53.218;6.548;2022-07-23T01:17:06;18.25;;;7.25;;
51915;SDS011;37942;53.218;6.548;2022-07-23T01:19:32;14.68;;;6.50;;
51915;SDS011;37942;53.218;6.548;2022-07-23T01:21:58;16.33;;;7.35;;
51915;SDS011;37942;53.218;6.548;2022-07-23T01:24:27;16.58;;;6.40;;
51915;SDS011;37942;53.218;6.548;2022-07-23T01:26:53;15.23;;;6.90;;
51915;SDS011;37942;53.218;6.548;2022-07-23T01:29:19;15.38;;;7.05;;
51915;SDS011;37942;53.218;6.548;2022-07-23T01:31:46;17.23;;;7.75;;
51915;SDS011;37942;53.218;6.548;2022-07-23T01:34:12;12.95;;;6.70;;
51915;SDS011;37942;53.218;6.548;2022-07-23T01:39:05;16.13;;;7.28;;
51915;SDS011;37942;53.218;6.548;2022-07-23T01:41:31;15.45;;;6.93;;
51915;SDS011;37942;53.218;6.548;2022-07-23T01:43:57;11.57;;;6.32;;
51915;SDS011;37942;53.218;6.548;2022-07-23T01:46:23;15.50;;;6.60;;
51915;SDS011;37942;53.218;6.548;2022-07-23T01:48:49;17.48;;;7.50;;
51915;SDS011;37942;53.218;6.548;2022-07-23T01:51:15;16.13;;;7.72;;
51915;SDS011;37942;53.218;6.548;2022-07-23T01:53:41;14.38;;;7.80;;
51915;SDS011;37942;53.218;6.548;2022-07-23T01:56:07;22.27;;;8.07;;
51915;SDS011;37942;53.218;6.548;2022-07-23T01:58:33;14.13;;;7.20;;
51915;SDS011;37942;53.218;6.548;2022-07-23T02:01:00;16.77;;;7.38;;
51915;SDS011;37942;53.218;6.548;2022-07-23T02:03:26;19.75;;;7.45;;
51915;SDS011;37942;53.218;6.548;2022-07-23T02:05:52;14.02;;;7.45;;
51915;SDS011;37942;53.218;6.548;2022-07-23T02:08:18;14.68;;;7.10;;
51915;SDS011;37942;53.218;6.548;2022-07-23T02:10:44;15.40;;;7.30;;
51915;SDS011;37942;53.218;6.548;2022-07-23T02:13:10;14.88;;;7.20;;
51915;SDS011;37942;53.218;6.548;2022-07-23T02:15:37;15.13;;;6.63;;
51915;SDS011;37942;53.218;6.548;2022-07-23T02:20:29;18.20;;;7.90;;
51915;SDS011;37942;53.218;6.548;2022-07-23T02:22:55;13.65;;;7.53;;
51915;SDS011;37942;53.218;6.548;2022-07-23T02:25:21;15.23;;;7.20;;
51915;SDS011;37942;53.218;6.548;2022-07-23T02:27:47;17.55;;;7.10;;
51915;SDS011;37942;53.218;6.548;2022-07-23T02:30:13;18.23;;;7.93;;
51915;SDS011;37942;53.218;6.548;2022-07-23T02:32:39;16.05;;;7.35;;
51915;SDS011;37942;53.218;6.548;2022-07-23T02:35:06;20.80;;;7.93;;
51915;SDS011;37942;53.218;6.548;2022-07-23T02:37:32;16.35;;;7.60;;
51915;SDS011;37942;53.218;6.548;2022-07-23T02:42:24;16.80;;;7.80;;
51915;SDS011;37942;53.218;6.548;2022-07-23T02:44:51;19.63;;;7.78;;
51915;SDS011;37942;53.218;6.548;2022-07-23T02:47:17;17.98;;;7.72;;
51915;SDS011;37942;53.218;6.548;2022-07-23T02:52:09;14.57;;;7.85;;
51915;SDS011;37942;53.218;6.548;2022-07-23T02:54:36;16.52;;;8.57;;
51915;SDS011;37942;53.218;6.548;2022-07-23T02:57:02;15.52;;;7.78;;
51915;SDS011;37942;53.218;6.548;2022-07-23T02:59:29;14.35;;;8.27;;
51915;SDS011;37942;53.218;6.548;2022-07-23T03:01:55;16.48;;;8.02;;
51915;SDS011;37942;53.218;6.548;2022-07-23T03:04:21;21.17;;;7.35;;
51915;SDS011;37942;53.218;6.548;2022-07-23T03:06:47;15.32;;;7.80;;
51915;SDS011;37942;53.218;6.548;2022-07-23T03:09:13;18.05;;;8.77;;
51915;SDS011;37942;53.218;6.548;2022-07-23T03:11:39;18.95;;;8.63;;
51915;SDS011;37942;53.218;6.548;2022-07-23T03:14:05;18.35;;;8.25;;
51915;SDS011;37942;53.218;6.548;2022-07-23T03:16:32;14.48;;;8.23;;
51915;SDS011;37942;53.218;6.548;2022-07-23T03:18:58;15.50;;;8.02;;
51915;SDS011;37942;53.218;6.548;2022-07-23T03:21:24;17.67;;;8.50;;
51915;SDS011;37942;53.218;6.548;2022-07-23T03:23:50;17.13;;;8.43;;
51915;SDS011;37942;53.218;6.548;2022-07-23T03:26:16;14.93;;;8.02;;
51915;SDS011;37942;53.218;6.548;2022-07-23T03:28:42;14.25;;;7.15;;
51915;SDS011;37942;53.218;6.548;2022-07-23T03:31:08;17.67;;;7.90;;
51915;SDS011;37942;53.218;6.548;2022-07-23T03:36:01;13.98;;;7.18;;
51915;SDS011;37942;53.218;6.548;2022-07-23T03:38:27;14.90;;;7.63;;
51915;SDS011;37942;53.218;6.548;2022-07-23T03:40:53;16.27;;;7.25;;
51915;SDS011;37942;53.218;6.548;2022-07-23T03:43:19;15.68;;;7.32;;
51915;SDS011;37942;53.218;6.548;2022-07-23T03:45:45;17.27;;;7.25;;
51915;SDS011;37942;53.218;6.548;2022-07-23T03:48:11;16.27;;;7.18;;
51915;SDS011;37942;53.218;6.548;2022-07-23T03:50:37;15.60;;;7.38;;
51915;SDS011;37942;53.218;6.548;2022-07-23T03:53:03;13.88;;;7.30;;
51915;SDS011;37942;53.218;6.548;2022-07-23T03:55:29;14.15;;;6.95;;
51915;SDS011;37942;53.218;6.548;2022-07-23T03:57:55;14.95;;;7.00;;
51915;SDS011;37942;53.218;6.548;2022-07-23T04:00:21;16.25;;;7.38;;
51915;SDS011;37942;53.218;6.548;2022-07-23T04:02:48;13.77;;;6.53;;
51915;SDS011;37942;53.218;6.548;2022-07-23T04:05:14;17.50;;;7.10;;
51915;SDS011;37942;53.218;6.548;2022-07-23T04:07:40;14.77;;;6.90;;
51915;SDS011;37942;53.218;6.548;2022-07-23T04:10:06;14.85;;;6.45;;
51915;SDS011;37942;53.218;6.548;2022-07-23T04:14:58;13.63;;;5.75;;
51915;SDS011;37942;53.218;6.548;2022-07-23T04:17:24;13.93;;;6.25;;
51915;SDS011;37942;53.218;6.548;2022-07-23T04:22:16;14.68;;;5.15;;
51915;SDS011;37942;53.218;6.548;2022-07-23T04:24:42;11.95;;;5.57;;
51915;SDS011;37942;53.218;6.548;2022-07-23T04:27:08;12.30;;;5.70;;
51915;SDS011;37942;53.218;6.548;2022-07-23T04:29:34;18.67;;;6.80;;
51915;SDS011;37942;53.218;6.548;2022-07-23T04:32:00;11.73;;;5.82;;
51915;SDS011;37942;53.218;6.548;2022-07-23T04:34:26;15.60;;;6.60;;
51915;SDS011;37942;53.218;6.548;2022-07-23T04:36:53;15.55;;;6.70;;
51915;SDS011;37942;53.218;6.548;2022-07-23T04:41:45;14.82;;;6.55;;
51915;SDS011;37942;53.218;6.548;2022-07-23T04:44:11;16.83;;;7.65;;
51915;SDS011;37942;53.218;6.548;2022-07-23T04:46:37;16.23;;;6.85;;
51915;SDS011;37942;53.218;6.548;2022-07-23T04:49:03;15.63;;;7.10;;
51915;SDS011;37942;53.218;6.548;2022-07-23T04:51:29;15.45;;;6.80;;
51915;SDS011;37942;53.218;6.548;2022-07-23T04:53:55;19.02;;;7.25;;
51915;SDS011;37942;53.218;6.548;2022-07-23T04:56:21;13.70;;;7.10;;
51915;SDS011;37942;53.218;6.548;2022-07-23T04:58:47;17.00;;;7.22;;
51915;SDS011;37942;53.218;6.548;2022-07-23T05:01:14;13.18;;;6.72;;
51915;SDS011;37942;53.218;6.548;2022-07-23T05:03:40;16.25;;;6.35;;
51915;SDS011;37942;53.218;6.548;2022-07-23T05:06:06;12.73;;;6.78;;
51915;SDS011;37942;53.218;6.548;2022-07-23T05:08:32;15.10;;;6.70;;
51915;SDS011;37942;53.218;6.548;2022-07-23T05:10:58;15.77;;;7.00;;
51915;SDS011;37942;53.218;6.548;2022-07-23T05:13:24;12.38;;;6.22;;
51915;SDS011;37942;53.218;6.548;2022-07-23T05:15:50;16.13;;;6.47;;
51915;SDS011;37942;53.218;6.548;2022-07-23T05:18:16;18.17;;;6.43;;
51915;SDS011;37942;53.218;6.548;2022-07-23T05:23:08;13.15;;;6.53;;
51915;SDS011;37942;53.218;6.548;2022-07-23T05:25:35;14.90;;;6.25;;
51915;SDS011;37942;53.218;6.548;2022-07-23T05:30:27;12.95;;;6.93;;
51915;SDS011;37942;53.218;6.548;2022-07-23T05:32:53;12.32;;;6.25;;
51915;SDS011;37942;53.218;6.548;2022-07-23T05:35:19;13.02;;;6.05;;
51915;SDS011;37942;53.218;6.548;2022-07-23T05:37:45;12.85;;;6.18;;
51915;SDS011;37942;53.218;6.548;2022-07-23T05:40:11;15.73;;;6.45;;
51915;SDS011;37942;53.218;6.548;2022-07-23T05:45:03;12.60;;;6.13;;
51915;SDS011;37942;53.218;6.548;2022-07-23T05:47:40;12.23;;;5.80;;
51915;SDS011;37942;53.218;6.548;2022-07-23T05:50:06;11.38;;;5.40;;
51915;SDS011;37942;53.218;6.548;2022-07-23T05:52:32;12.13;;;5.25;;
51915;SDS011;37942;53.218;6.548;2022-07-23T05:54:58;10.77;;;5.03;;
51915;SDS011;37942;53.218;6.548;2022-07-23T05:57:24;11.70;;;4.80;;
51915;SDS011;37942;53.218;6.548;2022-07-23T05:59:51;13.07;;;5.00;;
51915;SDS011;37942;53.218;6.548;2022-07-23T06:02:17;13.27;;;5.65;;
51915;SDS011;37942;53.218;6.548;2022-07-23T06:04:43;14.52;;;5.90;;
51915;SDS011;37942;53.218;6.548;2022-07-23T06:07:09;11.40;;;4.80;;
51915;SDS011;37942;53.218;6.548;2022-07-23T06:09:35;10.60;;;4.43;;
51915;SDS011;37942;53.218;6.548;2022-07-23T06:12:01;14.40;;;4.88;;
51915;SDS011;37942;53.218;6.548;2022-07-23T06:14:27;12.93;;;4.55;;
51915;SDS011;37942;53.218;6.548;2022-07-23T06:16:53;12.45;;;4.88;;
51915;SDS011;37942;53.218;6.548;2022-07-23T06:19:19;11.82;;;5.13;;
51915;SDS011;37942;53.218;6.548;2022-07-23T06:21:45;12.73;;;4.80;;
51915;SDS011;37942;53.218;6.548;2022-07-23T06:24:11;13.18;;;4.63;;
51915;SDS011;37942;53.218;6.548;2022-07-23T06:26:37;14.38;;;4.80;;
51915;SDS011;37942;53.218;6.548;2022-07-23T06:29:03;10.85;;;4.60;;
51915;SDS011;37942;53.218;6.548;2022-07-23T06:31:29;10.70;;;4.65;;
51915;SDS011;37942;53.218;6.548;2022-07-23T06:33:55;12.48;;;4.97;;
51915;SDS011;37942;53.218;6.548;2022-07-23T06:36:21;10.23;;;4.60;;
51915;SDS011;37942;53.218;6.548;2022-07-23T06:38:48;10.75;;;4.93;;
51915;SDS011;37942;53.218;6.548;2022-07-23T06:41:14;11.38;;;4.72;;
51915;SDS011;37942;53.218;6.548;2022-07-23T06:46:06;10.85;;;4.97;;
51915;SDS011;37942;53.218;6.548;2022-07-23T06:48:33;13.18;;;4.72;;
51915;SDS011;37942;53.218;6.548;2022-07-23T06:51:01;13.07;;;5.18;;
51915;SDS011;37942;53.218;6.548;2022-07-23T06:53:27;18.50;;;5.25;;
51915;SDS011;37942;53.218;6.548;2022-07-23T06:55:53;13.68;;;5.30;;
51915;SDS011;37942;53.218;6.548;2022-07-23T06:58:19;10.15;;;4.30;;
51915;SDS011;37942;53.218;6.548;2022-07-23T07:03:11;9.52;;;3.80;;
51915;SDS011;37942;53.218;6.548;2022-07-23T07:05:37;9.75;;;3.85;;
51915;SDS011;37942;53.218;6.548;2022-07-23T07:08:04;10.50;;;3.97;;
51915;SDS011;37942;53.218;6.548;2022-07-23T07:10:31;8.45;;;3.58;;
51915;SDS011;37942;53.218;6.548;2022-07-23T07:12:57;7.50;;;2.42;;
51915;SDS011;37942;53.218;6.548;2022-07-23T07:15:23;7.57;;;2.50;;
51915;SDS011;37942;53.218;6.548;2022-07-23T07:17:49;7.65;;;2.72;;
51915;SDS011;37942;53.218;6.548;2022-07-23T07:20:15;5.45;;;2.25;;
51915;SDS011;37942;53.218;6.548;2022-07-23T07:22:41;4.03;;;1.83;;
51915;SDS011;37942;53.218;6.548;2022-07-23T07:25:07;5.88;;;1.98;;
51915;SDS011;37942;53.218;6.548;2022-07-23T07:29:59;4.05;;;1.70;;
51915;SDS011;37942;53.218;6.548;2022-07-23T07:32:26;6.07;;;2.10;;
51915;SDS011;37942;53.218;6.548;2022-07-23T07:37:18;6.50;;;2.00;;
51915;SDS011;37942;53.218;6.548;2022-07-23T07:39:44;5.20;;;1.80;;
51915;SDS011;37942;53.218;6.548;2022-07-23T07:42:10;4.07;;;1.70;;
51915;SDS011;37942;53.218;6.548;2022-07-23T07:44:36;4.15;;;1.55;;
51915;SDS011;37942;53.218;6.548;2022-07-23T07:47:02;4.72;;;1.52;;
51915;SDS011;37942;53.218;6.548;2022-07-23T07:49:28;4.60;;;1.60;;
51915;SDS011;37942;53.218;6.548;2022-07-23T07:51:54;6.28;;;1.95;;
51915;SDS011;37942;53.218;6.548;2022-07-23T07:54:20;4.57;;;1.70;;
51915;SDS011;37942;53.218;6.548;2022-07-23T07:56:46;5.40;;;1.80;;
51915;SDS011;37942;53.218;6.548;2022-07-23T07:59:13;5.93;;;1.98;;
51915;SDS011;37942;53.218;6.548;2022-07-23T08:01:40;5.30;;;1.92;;
51915;SDS011;37942;53.218;6.548;2022-07-23T08:04:06;7.00;;;1.88;;
51915;SDS011;37942;53.218;6.548;2022-07-23T08:06:32;6.80;;;1.92;;
51915;SDS011;37942;53.218;6.548;2022-07-23T08:08:58;5.95;;;1.90;;
51915;SDS011;37942;53.218;6.548;2022-07-23T08:11:24;4.20;;;1.77;;
51915;SDS011;37942;53.218;6.548;2022-07-23T08:13:50;6.38;;;1.73;;
51915;SDS011;37942;53.218;6.548;2022-07-23T08:16:16;4.47;;;1.80;;
51915;SDS011;37942;53.218;6.548;2022-07-23T08:18:42;4.70;;;1.80;;
51915;SDS011;37942;53.218;6.548;2022-07-23T08:21:08;4.97;;;1.60;;
51915;SDS011;37942;53.218;6.548;2022-07-23T08:23:35;5.00;;;1.80;;
51915;SDS011;37942;53.218;6.548;2022-07-23T08:26:01;2.97;;;1.67;;
51915;SDS011;37942;53.218;6.548;2022-07-23T08:28:27;6.20;;;1.77;;
51915;SDS011;37942;53.218;6.548;2022-07-23T08:30:53;3.25;;;1.50;;
51915;SDS011;37942;53.218;6.548;2022-07-23T08:33:19;5.35;;;1.85;;
51915;SDS011;37942;53.218;6.548;2022-07-23T08:35:46;3.13;;;1.50;;
51915;SDS011;37942;53.218;6.548;2022-07-23T08:38:16;5.55;;;1.70;;
51915;SDS011;37942;53.218;6.548;2022-07-23T08:40:43;6.40;;;1.65;;
51915;SDS011;37942;53.218;6.548;2022-07-23T08:43:13;4.55;;;1.70;;
51915;SDS011;37942;53.218;6.548;2022-07-23T08:45:40;6.13;;;1.75;;
51915;SDS011;37942;53.218;6.548;2022-07-23T08:48:07;8.25;;;1.88;;
51915;SDS011;37942;53.218;6.548;2022-07-23T08:50:34;5.97;;;1.85;;
51915;SDS011;37942;53.218;6.548;2022-07-23T08:53:01;5.43;;;1.75;;
51915;SDS011;37942;53.218;6.548;2022-07-23T08:55:28;7.38;;;1.85;;
51915;SDS011;37942;53.218;6.548;2022-07-23T08:57:54;7.38;;;2.00;;
51915;SDS011;37942;53.218;6.548;2022-07-23T09:00:21;3.85;;;1.60;;
51915;SDS011;37942;53.218;6.548;2022-07-23T09:02:48;5.60;;;1.73;;
51915;SDS011;37942;53.218;6.548;2022-07-23T09:05:14;8.00;;;2.03;;
51915;SDS011;37942;53.218;6.548;2022-07-23T09:10:25;7.85;;;2.00;;
51915;SDS011;37942;53.218;6.548;2022-07-23T09:12:51;5.72;;;2.22;;
51915;SDS011;37942;53.218;6.548;2022-07-23T09:15:17;7.57;;;1.90;;
51915;SDS011;37942;53.218;6.548;2022-07-23T09:17:43;4.55;;;1.75;;
51915;SDS011;37942;53.218;6.548;2022-07-23T09:20:14;6.22;;;1.85;;
51915;SDS011;37942;53.218;6.548;2022-07-23T09:22:46;8.77;;;2.00;;
51915;SDS011;37942;53.218;6.548;2022-07-23T09:25:17;7.72;;;1.70;;
51915;SDS011;37942;53.218;6.548;2022-07-23T09:27:54;6.57;;;1.73;;
51915;SDS011;37942;53.218;6.548;2022-07-23T09:30:25;3.97;;;1.63;;
51915;SDS011;37942;53.218;6.548;2022-07-23T09:33:04;5.15;;;1.95;;
51915;SDS011;37942;53.218;6.548;2022-07-23T09:38:15;6.30;;;1.90;;
51915;SDS011;37942;53.218;6.548;2022-07-23T09:40:41;7.57;;;1.90;;
51915;SDS011;37942;53.218;6.548;2022-07-23T09:45:33;5.95;;;1.80;;
51915;SDS011;37942;53.218;6.548;2022-07-23T09:48:09;5.75;;;2.10;;
51915;SDS011;37942;53.218;6.548;2022-07-23T09:50:36;4.63;;;2.00;;
51915;SDS011;37942;53.218;6.548;2022-07-23T09:53:02;8.18;;;2.10;;
51915;SDS011;37942;53.218;6.548;2022-07-23T09:57:54;5.70;;;1.80;;
51915;SDS011;37942;53.218;6.548;2022-07-23T10:00:21;4.43;;;1.70;;
51915;SDS011;37942;53.218;6.548;2022-07-23T10:02:48;6.40;;;2.22;;
51915;SDS011;37942;53.218;6.548;2022-07-23T10:05:15;5.82;;;1.92;;
51915;SDS011;37942;53.218;6.548;2022-07-23T10:07:41;5.03;;;2.03;;
51915;SDS011;37942;53.218;6.548;2022-07-23T10:10:08;7.78;;;2.20;;
51915;SDS011;37942;53.218;6.548;2022-07-23T10:12:35;4.75;;;1.95;;
51915;SDS011;37942;53.218;6.548;2022-07-23T10:15:02;8.27;;;2.25;;
51915;SDS011;37942;53.218;6.548;2022-07-23T10:17:28;6.10;;;2.10;;
51915;SDS011;37942;53.218;6.548;2022-07-23T10:19:54;8.18;;;2.20;;
51915;SDS011;37942;53.218;6.548;2022-07-23T10:25:21;5.68;;;2.03;;
51915;SDS011;37942;53.218;6.548;2022-07-23T10:35:23;7.97;;;2.20;;
51915;SDS011;37942;53.218;6.548;2022-07-23T10:37:55;8.35;;;2.30;;
51915;SDS011;37942;53.218;6.548;2022-07-23T10:40:22;5.93;;;2.00;;
51915;SDS011;37942;53.218;6.548;2022-07-23T10:42:49;10.43;;;2.20;;
51915;SDS011;37942;53.218;6.548;2022-07-23T10:47:49;9.63;;;2.47;;
51915;SDS011;37942;53.218;6.548;2022-07-23T10:50:19;8.13;;;2.30;;
51915;SDS011;37942;53.218;6.548;2022-07-23T10:57:57;8.75;;;2.28;;
51915;SDS011;37942;53.218;6.548;2022-07-23T11:00:24;8.63;;;2.63;;
51915;SDS011;37942;53.218;6.548;2022-07-23T11:02:54;7.63;;;2.20;;
51915;SDS011;37942;53.218;6.548;2022-07-23T11:05:21;8.88;;;2.60;;
51915;SDS011;37942;53.218;6.548;2022-07-23T11:13:25;9.15;;;2.60;;
51915;SDS011;37942;53.218;6.548;2022-07-23T11:24:08;9.30;;;2.45;;
51915;SDS011;37942;53.218;6.548;2022-07-23T11:36:49;7.13;;;2.55;;
51915;SDS011;37942;53.218;6.548;2022-07-23T11:39:15;11.52;;;3.20;;
51915;SDS011;37942;53.218;6.548;2022-07-23T11:41:44;8.45;;;2.80;;
51915;SDS011;37942;53.218;6.548;2022-07-23T11:44:26;8.18;;;2.60;;
51915;SDS011;37942;53.218;6.548;2022-07-23T11:46:58;8.90;;;2.90;;
51915;SDS011;37942;53.218;6.548;2022-07-23T11:49:25;9.52;;;3.08;;
51915;SDS011;37942;53.218;6.548;2022-07-23T11:52:11;8.77;;;2.83;;
51915;SDS011;37942;53.218;6.548;2022-07-23T11:54:46;9.45;;;2.95;;
51915;SDS011;37942;53.218;6.548;2022-07-23T11:57:12;12.32;;;2.85;;
51915;SDS011;37942;53.218;6.548;2022-07-23T11:59:38;9.13;;;3.25;;
51915;SDS011;37942;53.218;6.548;2022-07-23T12:04:40;7.75;;;2.85;;
51915;SDS011;37942;53.218;6.548;2022-07-23T12:12:36;7.97;;;2.72;;
51915;SDS011;37942;53.218;6.548;2022-07-23T12:15:02;9.73;;;2.60;;
51915;SDS011;37942;53.218;6.548;2022-07-23T12:17:30;8.40;;;2.75;;
51915;SDS011;37942;53.218;6.548;2022-07-23T12:19:57;10.10;;;2.85;;
51915;SDS011;37942;53.218;6.548;2022-07-23T12:22:24;8.43;;;2.75;;
51915;SDS011;37942;53.218;6.548;2022-07-23T12:27:21;7.65;;;2.42;;
51915;SDS011;37942;53.218;6.548;2022-07-23T12:29:47;9.32;;;2.63;;
51915;SDS011;37942;53.218;6.548;2022-07-23T12:34:39;7.32;;;2.53;;
51915;SDS011;37942;53.218;6.548;2022-07-23T12:37:05;7.38;;;2.40;;
51915;SDS011;37942;53.218;6.548;2022-07-23T12:39:31;6.03;;;2.15;;
51915;SDS011;37942;53.218;6.548;2022-07-23T12:41:57;7.53;;;2.35;;
51915;SDS011;37942;53.218;6.548;2022-07-23T12:44:23;6.30;;;2.30;;
51915;SDS011;37942;53.218;6.548;2022-07-23T12:46:50;7.82;;;2.33;;
51915;SDS011;37942;53.218;6.548;2022-07-23T12:49:26;7.55;;;2.50;;
51915;SDS011;37942;53.218;6.548;2022-07-23T12:51:52;6.78;;;2.30;;
51915;SDS011;37942;53.218;6.548;2022-07-23T12:56:44;6.57;;;2.40;;
51915;SDS011;37942;53.218;6.548;2022-07-23T12:59:11;8.18;;;2.40;;
51915;SDS011;37942;53.218;6.548;2022-07-23T13:01:41;6.80;;;2.30;;
51915;SDS011;37942;53.218;6.548;2022-07-23T13:04:09;7.05;;;2.38;;
51915;SDS011;37942;53.218;6.548;2022-07-23T13:09:06;9.48;;;2.70;;
51915;SDS011;37942;53.218;6.548;2022-07-23T13:11:32;6.28;;;2.30;;
51915;SDS011;37942;53.218;6.548;2022-07-23T13:16:26;7.63;;;2.35;;
51915;SDS011;37942;53.218;6.548;2022-07-23T13:18:52;9.57;;;2.50;;
51915;SDS011;37942;53.218;6.548;2022-07-23T13:23:44;6.93;;;2.45;;
51915;SDS011;37942;53.218;6.548;2022-07-23T13:26:10;5.93;;;2.45;;
51915;SDS011;37942;53.218;6.548;2022-07-23T13:28:36;6.80;;;2.22;;
51915;SDS011;37942;53.218;6.548;2022-07-23T13:33:28;6.72;;;2.28;;
51915;SDS011;37942;53.218;6.548;2022-07-23T13:35:54;7.35;;;2.42;;
51915;SDS011;37942;53.218;6.548;2022-07-23T13:40:47;6.32;;;2.22;;
51915;SDS011;37942;53.218;6.548;2022-07-23T13:43:14;7.80;;;2.50;;
51915;SDS011;37942;53.218;6.548;2022-07-23T13:45:41;7.93;;;2.40;;
51915;SDS011;37942;53.218;6.548;2022-07-23T13:48:07;9.40;;;2.80;;
51915;SDS011;37942;53.218;6.548;2022-07-23T13:50:33;8.05;;;2.88;;
51915;SDS011;37942;53.218;6.548;2022-07-23T13:53:00;7.03;;;2.38;;
51915;SDS011;37942;53.218;6.548;2022-07-23T13:55:27;7.53;;;2.45;;
51915;SDS011;37942;53.218;6.548;2022-07-23T14:00:19;9.80;;;2.70;;
51915;SDS011;37942;53.218;6.548;2022-07-23T14:05:11;8.60;;;2.50;;
51915;SDS011;37942;53.218;6.548;2022-07-23T14:07:37;7.70;;;2.33;;
51915;SDS011;37942;53.218;6.548;2022-07-23T14:10:04;11.05;;;2.80;;
51915;SDS011;37942;53.218;6.548;2022-07-23T14:12:30;6.50;;;2.55;;
51915;SDS011;37942;53.218;6.548;2022-07-23T14:17:23;7.32;;;2.53;;
51915;SDS011;37942;53.218;6.548;2022-07-23T14:19:52;7.18;;;2.30;;
51915;SDS011;37942;53.218;6.548;2022-07-23T14:24:44;9.10;;;2.28;;
51915;SDS011;37942;53.218;6.548;2022-07-23T14:27:10;8.32;;;2.35;;
51915;SDS011;37942;53.218;6.548;2022-07-23T14:32:02;9.77;;;2.55;;
51915;SDS011;37942;53.218;6.548;2022-07-23T14:34:28;9.48;;;2.40;;
51915;SDS011;37942;53.218;6.548;2022-07-23T14:39:20;7.20;;;2.13;;
51915;SDS011;37942;53.218;6.548;2022-07-23T14:41:46;7.05;;;2.70;;
51915;SDS011;37942;53.218;6.548;2022-07-23T14:44:13;7.28;;;2.53;;
51915;SDS011;37942;53.218;6.548;2022-07-23T14:46:39;7.43;;;2.30;;
51915;SDS011;37942;53.218;6.548;2022-07-23T14:51:31;8.80;;;2.50;;
51915;SDS011;37942;53.218;6.548;2022-07-23T14:56:23;6.35;;;2.30;;
51915;SDS011;37942;53.218;6.548;2022-07-23T15:01:15;7.35;;;2.58;;
51915;SDS011;37942;53.218;6.548;2022-07-23T15:06:07;9.07;;;3.08;;
51915;SDS011;37942;53.218;6.548;2022-07-23T15:08:33;8.77;;;2.70;;
51915;SDS011;37942;53.218;6.548;2022-07-23T15:13:25;8.55;;;2.53;;
51915;SDS011;37942;53.218;6.548;2022-07-23T15:15:51;6.63;;;2.60;;
51915;SDS011;37942;53.218;6.548;2022-07-23T15:20:43;11.48;;;2.85;;
51915;SDS011;37942;53.218;6.548;2022-07-23T15:23:09;7.72;;;2.45;;
51915;SDS011;37942;53.218;6.548;2022-07-23T15:28:02;10.57;;;3.00;;
51915;SDS011;37942;53.218;6.548;2022-07-23T15:32:54;7.70;;;2.80;;
51915;SDS011;37942;53.218;6.548;2022-07-23T15:37:46;6.45;;;2.63;;
51915;SDS011;37942;53.218;6.548;2022-07-23T15:42:38;7.68;;;2.72;;
51915;SDS011;37942;53.218;6.548;2022-07-23T15:47:30;11.02;;;2.70;;
51915;SDS011;37942;53.218;6.548;2022-07-23T15:52:22;8.55;;;2.72;;
51915;SDS011;37942;53.218;6.548;2022-07-23T15:57:14;8.25;;;2.60;;
51915;SDS011;37942;53.218;6.548;2022-07-23T16:02:07;8.40;;;2.40;;
51915;SDS011;37942;53.218;6.548;2022-07-23T16:06:59;5.68;;;2.10;;
51915;SDS011;37942;53.218;6.548;2022-07-23T16:09:25;7.78;;;2.63;;
51915;SDS011;37942;53.218;6.548;2022-07-23T16:11:51;5.05;;;2.17;;
51915;SDS011;37942;53.218;6.548;2022-07-23T16:14:18;7.82;;;2.10;;
51915;SDS011;37942;53.218;6.548;2022-07-23T16:16:44;6.57;;;2.60;;
51915;SDS011;37942;53.218;6.548;2022-07-23T16:19:10;6.38;;;2.20;;
51915;SDS011;37942;53.218;6.548;2022-07-23T16:21:36;9.18;;;2.65;;
51915;SDS011;37942;53.218;6.548;2022-07-23T16:24:03;6.70;;;2.30;;
51915;SDS011;37942;53.218;6.548;2022-07-23T16:26:29;7.65;;;2.45;;
51915;SDS011;37942;53.218;6.548;2022-07-23T16:28:55;7.80;;;2.40;;
51915;SDS011;37942;53.218;6.548;2022-07-23T16:31:21;9.15;;;2.40;;
51915;SDS011;37942;53.218;6.548;2022-07-23T16:33:47;7.68;;;2.33;;
51915;SDS011;37942;53.218;6.548;2022-07-23T16:36:13;6.63;;;2.15;;
51915;SDS011;37942;53.218;6.548;2022-07-23T16:38:39;9.45;;;2.40;;
51915;SDS011;37942;53.218;6.548;2022-07-23T16:41:05;6.00;;;2.17;;
51915;SDS011;37942;53.218;6.548;2022-07-23T16:43:32;7.03;;;2.17;;
51915;SDS011;37942;53.218;6.548;2022-07-23T16:45:59;8.95;;;2.00;;
51915;SDS011;37942;53.218;6.548;2022-07-23T16:48:25;14.55;;;2.47;;
51915;SDS011;37942;53.218;6.548;2022-07-23T16:50:51;8.38;;;2.10;;
51915;SDS011;37942;53.218;6.548;2022-07-23T16:53:17;8.07;;;2.60;;
51915;SDS011;37942;53.218;6.548;2022-07-23T16:55:43;6.75;;;2.33;;
51915;SDS011;37942;53.218;6.548;2022-07-23T16:58:09;9.48;;;2.53;;
51915;SDS011;37942;53.218;6.548;2022-07-23T17:00:35;7.60;;;2.47;;
51915;SDS011;37942;53.218;6.548;2022-07-23T17:03:01;6.95;;;2.30;;
51915;SDS011;37942;53.218;6.548;2022-07-23T17:05:27;7.82;;;2.22;;
51915;SDS011;37942;53.218;6.548;2022-07-23T17:07:54;8.60;;;2.55;;
51915;SDS011;37942;53.218;6.548;2022-07-23T17:10:20;9.43;;;2.35;;
51915;SDS011;37942;53.218;6.548;2022-07-23T17:12:47;7.13;;;2.25;;
51915;SDS011;37942;53.218;6.548;2022-07-23T17:15:15;7.50;;;2.47;;
51915;SDS011;37942;53.218;6.548;2022-07-23T17:17:41;7.57;;;2.30;;
51915;SDS011;37942;53.218;6.548;2022-07-23T17:22:33;6.50;;;2.30;;
51915;SDS011;37942;53.218;6.548;2022-07-23T17:25:00;7.47;;;2.42;;
51915;SDS011;37942;53.218;6.548;2022-07-23T17:27:27;8.98;;;2.38;;
51915;SDS011;37942;53.218;6.548;2022-07-23T17:29:53;8.88;;;2.45;;
51915;SDS011;37942;53.218;6.548;2022-07-23T17:32:19;6.78;;;2.30;;
51915;SDS011;37942;53.218;6.548;2022-07-23T17:37:11;7.45;;;2.50;;
51915;SDS011;37942;53.218;6.548;2022-07-23T17:39:37;9.27;;;2.40;;
51915;SDS011;37942;53.218;6.548;2022-07-23T17:44:30;8.52;;;2.60;;
51915;SDS011;37942;53.218;6.548;2022-07-23T17:46:56;8.27;;;2.30;;